EGSS/STN METAR and TAF weather

Enter ICAO airport designator
Station Type Date Time Source
EGSS METAR 2022/11/30 10:50 UTC NOAA

EGSS 301050Z AUTO 02003KT 340V070 9000 BKN025 07/06 Q1025


Station Type Date Time Source
EGSS Decoded METAR 2022/11/30 10:50 UTC NOAA

Stansted Airport, United Kingdom (EGSS) 51-53N 000-14E 0M
Nov 30, 2022 - 05:50 AM EST / 2022.11.30 1050 UTC
Wind: from the NNE (020 degrees) at 3 MPH (3 KT) (direction variable):0
Visibility: 5 mile(s):0
Sky conditions: mostly cloudy
Temperature: 44 F (7 C)
Dew Point: 42 F (6 C)
Relative Humidity: 93%
Pressure (altimeter): 30.27 in. Hg (1025 hPa)
ob: EGSS 301050Z AUTO 02003KT 340V070 9000 BKN025 07/06 Q1025
cycle: 11

Station Type Date Time Source
EGSS TAF 2022/11/30 12:06 UTC NOAA

TAF EGSS 301100Z 3012/0118 VRB03KT 9999 SCT023 PROB30 3012/3016 7000
BECMG 3016/3019 2500 BR PROB40 3019/3022 0300 FG VV///
BECMG 3022/0101 0100 FG VV///
BECMG 0110/0113 9999 NSW FEW006 PROB40 0116/0118 3000 BR BKN003

Example: see airport list